sensor_id;sensor_type;location;lat;lon;timestamp;temperature;humidity
48579;DHT22;34357;51.948;6.132;2023-05-24T00:01:19;8.60;81.70
48579;DHT22;34357;51.948;6.132;2023-05-24T00:03:53;8.50;82.00
48579;DHT22;34357;51.948;6.132;2023-05-24T00:06:24;8.60;81.90
48579;DHT22;34357;51.948;6.132;2023-05-24T00:08:51;8.60;81.90
48579;DHT22;34357;51.948;6.132;2023-05-24T00:11:17;8.60;81.80
48579;DHT22;34357;51.948;6.132;2023-05-24T00:13:43;8.50;82.10
48579;DHT22;34357;51.948;6.132;2023-05-24T00:16:09;8.50;82.70
48579;DHT22;34357;51.948;6.132;2023-05-24T00:18:35;8.40;82.80
48579;DHT22;34357;51.948;6.132;2023-05-24T00:21:09;8.40;83.00
48579;DHT22;34357;51.948;6.132;2023-05-24T00:23:35;8.40;83.20
48579;DHT22;34357;51.948;6.132;2023-05-24T00:26:02;8.40;83.30
48579;DHT22;34357;51.948;6.132;2023-05-24T00:28:28;8.30;83.70
48579;DHT22;34357;51.948;6.132;2023-05-24T00:30:53;8.30;83.90
48579;DHT22;34357;51.948;6.132;2023-05-24T00:33:19;8.20;84.00
48579;DHT22;34357;51.948;6.132;2023-05-24T00:35:48;8.20;83.90
48579;DHT22;34357;51.948;6.132;2023-05-24T00:38:14;8.20;84.00
48579;DHT22;34357;51.948;6.132;2023-05-24T00:40:40;8.20;84.20
48579;DHT22;34357;51.948;6.132;2023-05-24T00:43:06;8.10;84.40
48579;DHT22;34357;51.948;6.132;2023-05-24T00:45:31;8.10;84.70
48579;DHT22;34357;51.948;6.132;2023-05-24T00:47:57;8.10;84.70
48579;DHT22;34357;51.948;6.132;2023-05-24T00:50:24;8.10;84.90
48579;DHT22;34357;51.948;6.132;2023-05-24T00:52:50;8.00;84.80
48579;DHT22;34357;51.948;6.132;2023-05-24T00:55:17;8.00;84.90
48579;DHT22;34357;51.948;6.132;2023-05-24T00:57:43;8.00;85.00
48579;DHT22;34357;51.948;6.132;2023-05-24T01:00:10;8.00;85.10
48579;DHT22;34357;51.948;6.132;2023-05-24T01:02:36;7.90;85.20
48579;DHT22;34357;51.948;6.132;2023-05-24T01:05:03;7.90;85.30
48579;DHT22;34357;51.948;6.132;2023-05-24T01:07:39;7.90;85.20
48579;DHT22;34357;51.948;6.132;2023-05-24T01:15:41;7.90;85.50
48579;DHT22;34357;51.948;6.132;2023-05-24T01:18:32;7.80;85.60
48579;DHT22;34357;51.948;6.132;2023-05-24T01:26:41;7.70;85.80
48579;DHT22;34357;51.948;6.132;2023-05-24T01:29:11;7.70;86.10
48579;DHT22;34357;51.948;6.132;2023-05-24T01:31:38;7.60;86.10
48579;DHT22;34357;51.948;6.132;2023-05-24T01:34:04;7.60;86.00
48579;DHT22;34357;51.948;6.132;2023-05-24T01:36:30;7.60;86.30
48579;DHT22;34357;51.948;6.132;2023-05-24T01:38:56;7.60;86.40
48579;DHT22;34357;51.948;6.132;2023-05-24T01:44:33;7.50;86.50
48579;DHT22;34357;51.948;6.132;2023-05-24T01:49:53;7.50;86.80
48579;DHT22;34357;51.948;6.132;2023-05-24T01:52:26;7.50;86.80
48579;DHT22;34357;51.948;6.132;2023-05-24T01:54:54;7.40;86.70
48579;DHT22;34357;51.948;6.132;2023-05-24T01:57:21;7.40;86.80
48579;DHT22;34357;51.948;6.132;2023-05-24T01:59:49;7.40;86.80
48579;DHT22;34357;51.948;6.132;2023-05-24T02:02:16;7.40;86.90
48579;DHT22;34357;51.948;6.132;2023-05-24T02:04:42;7.40;86.80
48579;DHT22;34357;51.948;6.132;2023-05-24T02:07:08;7.40;86.90
48579;DHT22;34357;51.948;6.132;2023-05-24T02:09:36;7.40;86.90
48579;DHT22;34357;51.948;6.132;2023-05-24T02:12:02;7.40;86.90
48579;DHT22;34357;51.948;6.132;2023-05-24T02:14:28;7.30;86.90
48579;DHT22;34357;51.948;6.132;2023-05-24T02:16:53;7.30;86.90
48579;DHT22;34357;51.948;6.132;2023-05-24T02:19:23;7.30;86.90
48579;DHT22;34357;51.948;6.132;2023-05-24T02:21:49;7.20;87.00
48579;DHT22;34357;51.948;6.132;2023-05-24T02:24:16;7.20;87.30
48579;DHT22;34357;51.948;6.132;2023-05-24T02:26:43;7.20;87.30
48579;DHT22;34357;51.948;6.132;2023-05-24T02:29:09;7.20;87.50
48579;DHT22;34357;51.948;6.132;2023-05-24T02:31:35;7.20;87.40
48579;DHT22;34357;51.948;6.132;2023-05-24T02:34:01;7.20;87.30
48579;DHT22;34357;51.948;6.132;2023-05-24T02:36:27;7.20;87.40
48579;DHT22;34357;51.948;6.132;2023-05-24T02:38:53;7.20;87.50
48579;DHT22;34357;51.948;6.132;2023-05-24T02:41:19;7.20;87.50
48579;DHT22;34357;51.948;6.132;2023-05-24T02:43:45;7.20;87.40
48579;DHT22;34357;51.948;6.132;2023-05-24T02:46:12;7.20;87.10
48579;DHT22;34357;51.948;6.132;2023-05-24T02:48:38;7.10;87.30
48579;DHT22;34357;51.948;6.132;2023-05-24T02:51:04;7.00;87.40
48579;DHT22;34357;51.948;6.132;2023-05-24T02:53:30;6.90;87.60
48579;DHT22;34357;51.948;6.132;2023-05-24T02:55:58;7.00;87.80
48579;DHT22;34357;51.948;6.132;2023-05-24T02:58:24;7.00;88.00
48579;DHT22;34357;51.948;6.132;2023-05-24T03:00:54;7.00;87.80
48579;DHT22;34357;51.948;6.132;2023-05-24T03:03:21;7.00;87.90
48579;DHT22;34357;51.948;6.132;2023-05-24T03:05:47;7.00;87.70
48579;DHT22;34357;51.948;6.132;2023-05-24T03:08:12;7.00;87.50
48579;DHT22;34357;51.948;6.132;2023-05-24T03:10:38;7.00;87.60
48579;DHT22;34357;51.948;6.132;2023-05-24T03:13:05;7.00;87.50
48579;DHT22;34357;51.948;6.132;2023-05-24T03:15:31;7.00;87.30
48579;DHT22;34357;51.948;6.132;2023-05-24T03:17:57;7.00;87.00
48579;DHT22;34357;51.948;6.132;2023-05-24T03:20:23;7.10;87.30
48579;DHT22;34357;51.948;6.132;2023-05-24T03:22:50;7.00;86.90
48579;DHT22;34357;51.948;6.132;2023-05-24T03:25:16;7.10;87.00
48579;DHT22;34357;51.948;6.132;2023-05-24T03:27:42;7.00;86.90
48579;DHT22;34357;51.948;6.132;2023-05-24T03:30:08;7.00;87.10
48579;DHT22;34357;51.948;6.132;2023-05-24T03:32:42;7.00;87.10
48579;DHT22;34357;51.948;6.132;2023-05-24T03:35:08;7.00;87.00
48579;DHT22;34357;51.948;6.132;2023-05-24T03:37:37;7.00;86.90
48579;DHT22;34357;51.948;6.132;2023-05-24T03:40:03;7.00;86.70
48579;DHT22;34357;51.948;6.132;2023-05-24T03:42:52;7.00;86.90
48579;DHT22;34357;51.948;6.132;2023-05-24T03:45:21;7.00;87.10
48579;DHT22;34357;51.948;6.132;2023-05-24T03:47:47;6.90;87.20
48579;DHT22;34357;51.948;6.132;2023-05-24T03:50:13;6.90;87.50
48579;DHT22;34357;51.948;6.132;2023-05-24T03:52:40;7.00;87.50
48579;DHT22;34357;51.948;6.132;2023-05-24T03:55:06;7.00;87.60
48579;DHT22;34357;51.948;6.132;2023-05-24T03:57:32;7.00;87.50
48579;DHT22;34357;51.948;6.132;2023-05-24T03:59:58;7.00;87.60
48579;DHT22;34357;51.948;6.132;2023-05-24T04:02:26;7.20;87.70
48579;DHT22;34357;51.948;6.132;2023-05-24T04:04:52;7.20;87.40
48579;DHT22;34357;51.948;6.132;2023-05-24T04:07:18;7.20;87.40
48579;DHT22;34357;51.948;6.132;2023-05-24T04:09:44;7.30;87.40
48579;DHT22;34357;51.948;6.132;2023-05-24T04:12:10;7.30;87.50
48579;DHT22;34357;51.948;6.132;2023-05-24T04:14:40;7.30;87.60
48579;DHT22;34357;51.948;6.132;2023-05-24T04:17:06;7.30;87.30
48579;DHT22;34357;51.948;6.132;2023-05-24T04:19:32;7.40;87.30
48579;DHT22;34357;51.948;6.132;2023-05-24T04:21:58;7.30;87.00
48579;DHT22;34357;51.948;6.132;2023-05-24T04:24:24;7.40;87.20
48579;DHT22;34357;51.948;6.132;2023-05-24T04:26:50;7.40;87.00
48579;DHT22;34357;51.948;6.132;2023-05-24T04:29:16;7.40;87.20
48579;DHT22;34357;51.948;6.132;2023-05-24T04:31:43;7.40;87.30
48579;DHT22;34357;51.948;6.132;2023-05-24T04:34:10;7.40;87.50
48579;DHT22;34357;51.948;6.132;2023-05-24T04:36:38;7.50;87.40
48579;DHT22;34357;51.948;6.132;2023-05-24T04:39:03;7.50;87.50
48579;DHT22;34357;51.948;6.132;2023-05-24T04:41:30;7.50;87.60
48579;DHT22;34357;51.948;6.132;2023-05-24T04:44:00;7.60;87.70
48579;DHT22;34357;51.948;6.132;2023-05-24T04:46:27;7.70;87.50
48579;DHT22;34357;51.948;6.132;2023-05-24T04:48:53;7.70;87.40
48579;DHT22;34357;51.948;6.132;2023-05-24T04:51:20;7.80;87.50
48579;DHT22;34357;51.948;6.132;2023-05-24T04:53:46;7.90;87.70
48579;DHT22;34357;51.948;6.132;2023-05-24T04:56:12;8.00;87.90
48579;DHT22;34357;51.948;6.132;2023-05-24T04:58:40;8.10;87.90
48579;DHT22;34357;51.948;6.132;2023-05-24T05:01:06;8.20;87.90
48579;DHT22;34357;51.948;6.132;2023-05-24T05:03:32;8.30;87.50
48579;DHT22;34357;51.948;6.132;2023-05-24T05:05:57;8.40;87.30
48579;DHT22;34357;51.948;6.132;2023-05-24T05:08:24;8.30;87.10
48579;DHT22;34357;51.948;6.132;2023-05-24T05:10:49;8.40;87.50
48579;DHT22;34357;51.948;6.132;2023-05-24T05:13:15;8.50;87.70
48579;DHT22;34357;51.948;6.132;2023-05-24T05:15:41;8.50;87.50
48579;DHT22;34357;51.948;6.132;2023-05-24T05:18:07;8.50;87.40
48579;DHT22;34357;51.948;6.132;2023-05-24T05:20:33;8.60;87.30
48579;DHT22;34357;51.948;6.132;2023-05-24T05:22:58;8.60;87.20
48579;DHT22;34357;51.948;6.132;2023-05-24T05:25:24;8.70;87.20
48579;DHT22;34357;51.948;6.132;2023-05-24T05:27:50;8.80;87.40
48579;DHT22;34357;51.948;6.132;2023-05-24T05:30:19;8.90;87.30
48579;DHT22;34357;51.948;6.132;2023-05-24T05:32:45;9.00;87.20
48579;DHT22;34357;51.948;6.132;2023-05-24T05:35:11;9.10;87.00
48579;DHT22;34357;51.948;6.132;2023-05-24T05:37:36;9.30;86.90
48579;DHT22;34357;51.948;6.132;2023-05-24T05:40:03;9.40;87.00
48579;DHT22;34357;51.948;6.132;2023-05-24T05:42:29;9.40;86.30
48579;DHT22;34357;51.948;6.132;2023-05-24T05:44:56;9.60;86.30
48579;DHT22;34357;51.948;6.132;2023-05-24T05:47:21;9.80;86.00
48579;DHT22;34357;51.948;6.132;2023-05-24T05:49:47;9.90;85.90
48579;DHT22;34357;51.948;6.132;2023-05-24T05:52:13;10.00;85.20
48579;DHT22;34357;51.948;6.132;2023-05-24T05:54:39;9.90;85.40
48579;DHT22;34357;51.948;6.132;2023-05-24T05:57:05;10.00;85.30
48579;DHT22;34357;51.948;6.132;2023-05-24T05:59:32;10.20;85.30
48579;DHT22;34357;51.948;6.132;2023-05-24T06:02:01;10.30;85.20
48579;DHT22;34357;51.948;6.132;2023-05-24T06:04:27;10.50;85.40
48579;DHT22;34357;51.948;6.132;2023-05-24T06:06:53;10.50;85.10
48579;DHT22;34357;51.948;6.132;2023-05-24T06:09:19;10.50;84.90
48579;DHT22;34357;51.948;6.132;2023-05-24T06:11:45;10.50;85.00
48579;DHT22;34357;51.948;6.132;2023-05-24T06:14:14;10.60;84.90
48579;DHT22;34357;51.948;6.132;2023-05-24T06:16:44;10.60;85.50
48579;DHT22;34357;51.948;6.132;2023-05-24T06:19:13;10.60;85.40
48579;DHT22;34357;51.948;6.132;2023-05-24T06:21:40;10.70;85.40
48579;DHT22;34357;51.948;6.132;2023-05-24T06:24:15;10.80;85.10
48579;DHT22;34357;51.948;6.132;2023-05-24T06:26:48;10.90;85.20
48579;DHT22;34357;51.948;6.132;2023-05-24T06:29:15;11.00;85.00
48579;DHT22;34357;51.948;6.132;2023-05-24T06:31:41;11.30;84.60
48579;DHT22;34357;51.948;6.132;2023-05-24T06:34:07;11.40;83.60
48579;DHT22;34357;51.948;6.132;2023-05-24T06:36:33;11.60;82.90
48579;DHT22;34357;51.948;6.132;2023-05-24T06:39:05;11.80;81.60
48579;DHT22;34357;51.948;6.132;2023-05-24T06:41:31;11.90;80.50
48579;DHT22;34357;51.948;6.132;2023-05-24T06:43:57;11.90;80.50
48579;DHT22;34357;51.948;6.132;2023-05-24T06:46:23;12.00;79.40
48579;DHT22;34357;51.948;6.132;2023-05-24T06:48:49;12.10;78.70
48579;DHT22;34357;51.948;6.132;2023-05-24T06:51:14;12.30;78.80
48579;DHT22;34357;51.948;6.132;2023-05-24T06:53:40;12.40;77.60
48579;DHT22;34357;51.948;6.132;2023-05-24T06:56:06;12.40;78.50
48579;DHT22;34357;51.948;6.132;2023-05-24T06:58:34;12.40;78.80
48579;DHT22;34357;51.948;6.132;2023-05-24T07:01:01;12.30;78.00
48579;DHT22;34357;51.948;6.132;2023-05-24T07:03:29;12.10;77.40
48579;DHT22;34357;51.948;6.132;2023-05-24T07:05:56;12.00;76.50
48579;DHT22;34357;51.948;6.132;2023-05-24T07:08:23;12.20;76.90
48579;DHT22;34357;51.948;6.132;2023-05-24T07:10:49;12.70;76.80
48579;DHT22;34357;51.948;6.132;2023-05-24T07:13:15;13.10;74.20
48579;DHT22;34357;51.948;6.132;2023-05-24T07:15:41;13.10;73.40
48579;DHT22;34357;51.948;6.132;2023-05-24T07:18:07;13.50;73.30
48579;DHT22;34357;51.948;6.132;2023-05-24T07:20:33;14.10;70.60
48579;DHT22;34357;51.948;6.132;2023-05-24T07:23:00;14.50;70.50
48579;DHT22;34357;51.948;6.132;2023-05-24T07:25:26;14.20;68.20
48579;DHT22;34357;51.948;6.132;2023-05-24T07:27:52;13.90;68.40
48579;DHT22;34357;51.948;6.132;2023-05-24T07:30:18;13.70;70.70
48579;DHT22;34357;51.948;6.132;2023-05-24T07:32:44;14.10;69.80
48579;DHT22;34357;51.948;6.132;2023-05-24T07:35:10;14.50;68.70
48579;DHT22;34357;51.948;6.132;2023-05-24T07:37:40;14.90;68.20
48579;DHT22;34357;51.948;6.132;2023-05-24T07:40:07;14.90;65.40
48579;DHT22;34357;51.948;6.132;2023-05-24T07:42:37;14.60;66.30
48579;DHT22;34357;51.948;6.132;2023-05-24T07:45:03;14.50;66.20
48579;DHT22;34357;51.948;6.132;2023-05-24T07:47:29;14.40;66.40
48579;DHT22;34357;51.948;6.132;2023-05-24T07:49:55;14.40;66.40
48579;DHT22;34357;51.948;6.132;2023-05-24T07:52:22;14.10;66.70
48579;DHT22;34357;51.948;6.132;2023-05-24T07:54:49;14.30;67.10
48579;DHT22;34357;51.948;6.132;2023-05-24T07:57:14;14.40;67.00
48579;DHT22;34357;51.948;6.132;2023-05-24T07:59:40;14.40;67.10
48579;DHT22;34357;51.948;6.132;2023-05-24T08:02:06;14.40;66.00
48579;DHT22;34357;51.948;6.132;2023-05-24T08:04:34;14.40;65.90
48579;DHT22;34357;51.948;6.132;2023-05-24T08:07:00;14.60;64.90
48579;DHT22;34357;51.948;6.132;2023-05-24T08:09:30;14.60;64.60
48579;DHT22;34357;51.948;6.132;2023-05-24T08:12:04;14.60;64.50
48579;DHT22;34357;51.948;6.132;2023-05-24T08:14:30;14.60;65.40
48579;DHT22;34357;51.948;6.132;2023-05-24T08:16:56;14.60;65.80
48579;DHT22;34357;51.948;6.132;2023-05-24T08:19:22;14.40;65.90
48579;DHT22;34357;51.948;6.132;2023-05-24T08:21:48;14.40;66.90
48579;DHT22;34357;51.948;6.132;2023-05-24T08:24:14;14.60;65.70
48579;DHT22;34357;51.948;6.132;2023-05-24T08:26:40;14.70;64.80
48579;DHT22;34357;51.948;6.132;2023-05-24T08:29:08;14.80;65.00
48579;DHT22;34357;51.948;6.132;2023-05-24T08:31:34;15.20;64.70
48579;DHT22;34357;51.948;6.132;2023-05-24T08:34:00;15.10;63.20
48579;DHT22;34357;51.948;6.132;2023-05-24T08:36:27;15.00;64.10
48579;DHT22;34357;51.948;6.132;2023-05-24T08:38:52;14.60;64.40
48579;DHT22;34357;51.948;6.132;2023-05-24T08:41:18;14.90;65.40
48579;DHT22;34357;51.948;6.132;2023-05-24T08:43:46;14.90;64.50
48579;DHT22;34357;51.948;6.132;2023-05-24T08:46:14;14.90;64.80
48579;DHT22;34357;51.948;6.132;2023-05-24T08:48:46;14.90;63.80
48579;DHT22;34357;51.948;6.132;2023-05-24T08:51:15;15.40;64.30
48579;DHT22;34357;51.948;6.132;2023-05-24T08:53:43;15.60;62.20
48579;DHT22;34357;51.948;6.132;2023-05-24T08:56:16;15.50;61.90
48579;DHT22;34357;51.948;6.132;2023-05-24T08:58:43;15.40;63.10
48579;DHT22;34357;51.948;6.132;2023-05-24T09:01:13;15.90;61.50
48579;DHT22;34357;51.948;6.132;2023-05-24T09:03:42;16.70;59.90
48579;DHT22;34357;51.948;6.132;2023-05-24T09:06:12;17.10;62.20
48579;DHT22;34357;51.948;6.132;2023-05-24T09:08:39;17.50;58.50
48579;DHT22;34357;51.948;6.132;2023-05-24T09:11:07;17.80;56.40
48579;DHT22;34357;51.948;6.132;2023-05-24T09:13:34;18.20;54.00
48579;DHT22;34357;51.948;6.132;2023-05-24T09:16:01;18.80;54.10
48579;DHT22;34357;51.948;6.132;2023-05-24T09:18:27;18.40;53.60
48579;DHT22;34357;51.948;6.132;2023-05-24T09:20:53;18.20;54.20
48579;DHT22;34357;51.948;6.132;2023-05-24T09:23:19;18.50;54.00
48579;DHT22;34357;51.948;6.132;2023-05-24T09:25:46;18.20;53.00
48579;DHT22;34357;51.948;6.132;2023-05-24T09:28:16;17.50;53.30
48579;DHT22;34357;51.948;6.132;2023-05-24T09:30:59;16.70;56.00
48579;DHT22;34357;51.948;6.132;2023-05-24T09:33:33;16.50;56.60
48579;DHT22;34357;51.948;6.132;2023-05-24T09:36:01;16.90;56.00
48579;DHT22;34357;51.948;6.132;2023-05-24T09:38:27;17.00;55.80
48579;DHT22;34357;51.948;6.132;2023-05-24T09:41:05;16.60;56.30
48579;DHT22;34357;51.948;6.132;2023-05-24T09:43:32;16.90;57.30
48579;DHT22;34357;51.948;6.132;2023-05-24T09:46:02;17.60;56.90
48579;DHT22;34357;51.948;6.132;2023-05-24T09:48:32;17.50;55.10
48579;DHT22;34357;51.948;6.132;2023-05-24T09:51:03;17.10;56.00
48579;DHT22;34357;51.948;6.132;2023-05-24T09:53:31;17.00;56.20
48579;DHT22;34357;51.948;6.132;2023-05-24T09:55:59;17.40;56.10
48579;DHT22;34357;51.948;6.132;2023-05-24T09:58:30;17.60;55.70
48579;DHT22;34357;51.948;6.132;2023-05-24T10:01:08;17.30;55.80
48579;DHT22;34357;51.948;6.132;2023-05-24T10:03:57;17.00;57.60
48579;DHT22;34357;51.948;6.132;2023-05-24T10:06:24;17.20;56.40
48579;DHT22;34357;51.948;6.132;2023-05-24T10:08:51;16.90;55.20
48579;DHT22;34357;51.948;6.132;2023-05-24T10:11:17;16.80;57.50
48579;DHT22;34357;51.948;6.132;2023-05-24T10:13:43;17.20;57.90
48579;DHT22;34357;51.948;6.132;2023-05-24T10:16:09;17.70;55.10
48579;DHT22;34357;51.948;6.132;2023-05-24T10:18:38;17.90;54.80
48579;DHT22;34357;51.948;6.132;2023-05-24T10:21:05;18.10;54.50
48579;DHT22;34357;51.948;6.132;2023-05-24T10:23:38;18.30;54.10
48579;DHT22;34357;51.948;6.132;2023-05-24T10:26:08;18.50;52.30
48579;DHT22;34357;51.948;6.132;2023-05-24T10:28:51;18.00;54.90
48579;DHT22;34357;51.948;6.132;2023-05-24T10:31:30;18.30;54.20
48579;DHT22;34357;51.948;6.132;2023-05-24T10:33:58;18.40;54.00
48579;DHT22;34357;51.948;6.132;2023-05-24T10:36:25;18.50;54.00
48579;DHT22;34357;51.948;6.132;2023-05-24T10:38:51;18.20;54.20
48579;DHT22;34357;51.948;6.132;2023-05-24T10:41:17;17.80;54.20
48579;DHT22;34357;51.948;6.132;2023-05-24T10:43:46;17.40;53.40
48579;DHT22;34357;51.948;6.132;2023-05-24T10:46:14;17.30;54.90
48579;DHT22;34357;51.948;6.132;2023-05-24T10:48:43;17.20;56.40
48579;DHT22;34357;51.948;6.132;2023-05-24T10:51:35;17.80;55.30
48579;DHT22;34357;51.948;6.132;2023-05-24T10:54:12;18.60;53.40
48579;DHT22;34357;51.948;6.132;2023-05-24T10:56:40;18.20;54.30
48579;DHT22;34357;51.948;6.132;2023-05-24T10:59:06;17.80;53.70
48579;DHT22;34357;51.948;6.132;2023-05-24T11:01:33;17.70;55.10
48579;DHT22;34357;51.948;6.132;2023-05-24T11:04:09;17.50;54.40
48579;DHT22;34357;51.948;6.132;2023-05-24T11:06:56;17.60;55.70
48579;DHT22;34357;51.948;6.132;2023-05-24T11:09:26;18.40;54.00
48579;DHT22;34357;51.948;6.132;2023-05-24T11:11:54;19.00;52.50
48579;DHT22;34357;51.948;6.132;2023-05-24T11:14:28;19.10;51.60
48579;DHT22;34357;51.948;6.132;2023-05-24T11:16:55;18.70;51.10
48579;DHT22;34357;51.948;6.132;2023-05-24T11:19:23;18.10;50.20
48579;DHT22;34357;51.948;6.132;2023-05-24T11:21:52;17.70;52.50
48579;DHT22;34357;51.948;6.132;2023-05-24T11:24:23;17.90;51.90
48579;DHT22;34357;51.948;6.132;2023-05-24T11:26:50;18.00;53.70
48579;DHT22;34357;51.948;6.132;2023-05-24T11:29:17;18.40;53.00
48579;DHT22;34357;51.948;6.132;2023-05-24T11:31:52;18.30;53.30
48579;DHT22;34357;51.948;6.132;2023-05-24T11:34:19;18.20;52.40
48579;DHT22;34357;51.948;6.132;2023-05-24T11:36:45;18.10;51.50
48579;DHT22;34357;51.948;6.132;2023-05-24T11:39:13;18.40;51.80
48579;DHT22;34357;51.948;6.132;2023-05-24T11:41:39;18.00;52.10
48579;DHT22;34357;51.948;6.132;2023-05-24T11:44:09;17.90;53.00
48579;DHT22;34357;51.948;6.132;2023-05-24T11:46:36;17.60;54.30
48579;DHT22;34357;51.948;6.132;2023-05-24T11:49:04;17.50;54.50
48579;DHT22;34357;51.948;6.132;2023-05-24T11:51:32;17.80;53.30
48579;DHT22;34357;51.948;6.132;2023-05-24T11:53:58;18.40;54.90
48579;DHT22;34357;51.948;6.132;2023-05-24T11:56:29;18.30;51.60
48579;DHT22;34357;51.948;6.132;2023-05-24T11:59:07;18.30;52.10
48579;DHT22;34357;51.948;6.132;2023-05-24T12:01:33;18.20;52.00
48579;DHT22;34357;51.948;6.132;2023-05-24T12:03:59;17.90;54.90
48579;DHT22;34357;51.948;6.132;2023-05-24T12:06:37;17.60;54.80
48579;DHT22;34357;51.948;6.132;2023-05-24T12:09:03;17.30;54.10
48579;DHT22;34357;51.948;6.132;2023-05-24T12:11:41;17.20;53.60
48579;DHT22;34357;51.948;6.132;2023-05-24T12:14:18;17.10;53.50
48579;DHT22;34357;51.948;6.132;2023-05-24T12:16:45;17.10;54.10
48579;DHT22;34357;51.948;6.132;2023-05-24T12:19:21;17.00;55.20
48579;DHT22;34357;51.948;6.132;2023-05-24T12:21:54;17.10;53.30
48579;DHT22;34357;51.948;6.132;2023-05-24T12:24:22;16.90;54.30
48579;DHT22;34357;51.948;6.132;2023-05-24T12:26:48;16.80;56.10
48579;DHT22;34357;51.948;6.132;2023-05-24T12:29:15;16.80;55.20
48579;DHT22;34357;51.948;6.132;2023-05-24T12:31:43;16.80;54.80
48579;DHT22;34357;51.948;6.132;2023-05-24T12:34:12;16.70;56.00
48579;DHT22;34357;51.948;6.132;2023-05-24T12:36:39;16.60;56.10
48579;DHT22;34357;51.948;6.132;2023-05-24T12:39:20;16.50;57.00
48579;DHT22;34357;51.948;6.132;2023-05-24T12:41:51;16.60;57.10
48579;DHT22;34357;51.948;6.132;2023-05-24T12:44:27;16.50;57.00
48579;DHT22;34357;51.948;6.132;2023-05-24T12:46:54;16.40;57.00
48579;DHT22;34357;51.948;6.132;2023-05-24T12:49:21;16.30;57.40
48579;DHT22;34357;51.948;6.132;2023-05-24T12:51:48;16.30;58.10
48579;DHT22;34357;51.948;6.132;2023-05-24T12:54:14;16.20;57.60
48579;DHT22;34357;51.948;6.132;2023-05-24T12:56:40;16.20;56.40
48579;DHT22;34357;51.948;6.132;2023-05-24T12:59:06;16.30;56.10
48579;DHT22;34357;51.948;6.132;2023-05-24T13:01:32;16.20;56.20
48579;DHT22;34357;51.948;6.132;2023-05-24T13:03:57;16.30;54.50
48579;DHT22;34357;51.948;6.132;2023-05-24T13:06:23;16.20;56.80
48579;DHT22;34357;51.948;6.132;2023-05-24T13:08:49;16.20;57.30
48579;DHT22;34357;51.948;6.132;2023-05-24T13:11:15;16.20;57.00
48579;DHT22;34357;51.948;6.132;2023-05-24T13:13:41;16.30;56.80
48579;DHT22;34357;51.948;6.132;2023-05-24T13:16:09;16.20;58.30
48579;DHT22;34357;51.948;6.132;2023-05-24T13:18:35;16.30;58.70
48579;DHT22;34357;51.948;6.132;2023-05-24T13:21:02;16.30;57.70
48579;DHT22;34357;51.948;6.132;2023-05-24T13:23:33;16.30;57.90
48579;DHT22;34357;51.948;6.132;2023-05-24T13:26:01;16.20;57.80
48579;DHT22;34357;51.948;6.132;2023-05-24T13:28:29;16.20;58.70
48579;DHT22;34357;51.948;6.132;2023-05-24T13:30:55;16.30;57.50
48579;DHT22;34357;51.948;6.132;2023-05-24T13:33:21;16.30;58.20
48579;DHT22;34357;51.948;6.132;2023-05-24T13:35:47;16.40;59.00
48579;DHT22;34357;51.948;6.132;2023-05-24T13:38:14;16.50;58.60
48579;DHT22;34357;51.948;6.132;2023-05-24T13:40:39;16.50;59.20
48579;DHT22;34357;51.948;6.132;2023-05-24T13:43:06;16.40;57.90
48579;DHT22;34357;51.948;6.132;2023-05-24T13:45:32;16.20;58.20
48579;DHT22;34357;51.948;6.132;2023-05-24T13:47:59;16.20;59.30
48579;DHT22;34357;51.948;6.132;2023-05-24T13:50:32;16.20;58.50
48579;DHT22;34357;51.948;6.132;2023-05-24T13:52:59;16.10;59.50
48579;DHT22;34357;51.948;6.132;2023-05-24T13:55:27;16.20;58.50
48579;DHT22;34357;51.948;6.132;2023-05-24T13:57:54;16.40;59.20
48579;DHT22;34357;51.948;6.132;2023-05-24T14:00:21;16.40;59.50
48579;DHT22;34357;51.948;6.132;2023-05-24T14:02:48;16.40;57.90
48579;DHT22;34357;51.948;6.132;2023-05-24T14:05:14;16.50;57.90
48579;DHT22;34357;51.948;6.132;2023-05-24T14:07:40;16.30;58.90
48579;DHT22;34357;51.948;6.132;2023-05-24T14:10:06;16.30;58.70
48579;DHT22;34357;51.948;6.132;2023-05-24T14:12:32;16.40;57.70
48579;DHT22;34357;51.948;6.132;2023-05-24T14:14:58;16.60;58.40
48579;DHT22;34357;51.948;6.132;2023-05-24T14:17:24;16.50;58.60
48579;DHT22;34357;51.948;6.132;2023-05-24T14:19:50;16.60;58.10
48579;DHT22;34357;51.948;6.132;2023-05-24T14:22:15;16.60;58.10
48579;DHT22;34357;51.948;6.132;2023-05-24T14:24:42;16.70;57.60
48579;DHT22;34357;51.948;6.132;2023-05-24T14:27:08;16.70;58.20
48579;DHT22;34357;51.948;6.132;2023-05-24T14:29:34;16.60;57.40
48579;DHT22;34357;51.948;6.132;2023-05-24T14:32:00;16.60;58.20
48579;DHT22;34357;51.948;6.132;2023-05-24T14:34:26;16.60;58.20
48579;DHT22;34357;51.948;6.132;2023-05-24T14:36:53;16.60;57.30
48579;DHT22;34357;51.948;6.132;2023-05-24T14:39:19;16.60;58.90
48579;DHT22;34357;51.948;6.132;2023-05-24T14:41:45;16.60;58.70
48579;DHT22;34357;51.948;6.132;2023-05-24T14:44:11;16.60;59.40
48579;DHT22;34357;51.948;6.132;2023-05-24T14:46:37;16.70;59.40
48579;DHT22;34357;51.948;6.132;2023-05-24T14:49:03;16.50;58.60
48579;DHT22;34357;51.948;6.132;2023-05-24T14:51:29;16.40;59.00
48579;DHT22;34357;51.948;6.132;2023-05-24T14:53:55;16.50;59.20
48579;DHT22;34357;51.948;6.132;2023-05-24T14:56:20;16.90;57.60
48579;DHT22;34357;51.948;6.132;2023-05-24T14:58:47;17.20;57.20
48579;DHT22;34357;51.948;6.132;2023-05-24T15:01:13;17.50;56.40
48579;DHT22;34357;51.948;6.132;2023-05-24T15:03:39;17.80;56.50
48579;DHT22;34357;51.948;6.132;2023-05-24T15:06:04;17.70;55.60
48579;DHT22;34357;51.948;6.132;2023-05-24T15:08:31;17.70;56.10
48579;DHT22;34357;51.948;6.132;2023-05-24T15:11:18;17.70;55.60
48579;DHT22;34357;51.948;6.132;2023-05-24T15:18:20;17.70;56.80
48579;DHT22;34357;51.948;6.132;2023-05-24T15:20:46;18.00;56.80
48579;DHT22;34357;51.948;6.132;2023-05-24T15:23:12;18.10;55.20
48579;DHT22;34357;51.948;6.132;2023-05-24T15:25:57;18.00;54.40
48579;DHT22;34357;51.948;6.132;2023-05-24T15:28:23;18.00;54.60
48579;DHT22;34357;51.948;6.132;2023-05-24T15:30:49;18.00;55.20
48579;DHT22;34357;51.948;6.132;2023-05-24T15:33:20;17.90;56.00
48579;DHT22;34357;51.948;6.132;2023-05-24T15:35:55;17.70;55.30
48579;DHT22;34357;51.948;6.132;2023-05-24T15:38:21;17.80;55.60
48579;DHT22;34357;51.948;6.132;2023-05-24T15:40:47;17.70;55.30
48579;DHT22;34357;51.948;6.132;2023-05-24T15:43:14;17.60;54.00
48579;DHT22;34357;51.948;6.132;2023-05-24T15:45:41;17.40;55.30
48579;DHT22;34357;51.948;6.132;2023-05-24T15:48:08;17.50;55.70
48579;DHT22;34357;51.948;6.132;2023-05-24T15:50:34;17.60;56.20
48579;DHT22;34357;51.948;6.132;2023-05-24T15:53:00;17.70;56.30
48579;DHT22;34357;51.948;6.132;2023-05-24T15:55:26;17.60;56.90
48579;DHT22;34357;51.948;6.132;2023-05-24T15:57:53;17.40;56.00
48579;DHT22;34357;51.948;6.132;2023-05-24T16:00:19;17.40;56.30
48579;DHT22;34357;51.948;6.132;2023-05-24T16:02:44;17.60;57.70